createdAt,value
2023-03-16T16:25:39.482Z,17.00
2023-03-16T16:28:23.386Z,21.00
2023-03-16T16:30:54.460Z,17.60
2023-03-16T16:33:29.255Z,15.50
2023-03-16T16:36:00.783Z,16.50
2023-03-16T16:38:30.960Z,30.20
2023-03-16T16:44:34.850Z,29.60
2023-03-16T16:47:37.491Z,29.40
2023-03-16T16:50:49.313Z,33.20
2023-03-16T16:53:23.803Z,53.70
2023-03-16T16:55:51.787Z,80.60
2023-03-16T16:58:27.024Z,64.50
2023-03-16T17:00:58.175Z,54.80
2023-03-16T17:03:30.083Z,41.80
2023-03-16T17:05:59.078Z,44.30
2023-03-16T17:08:28.725Z,45.60
2023-03-16T17:10:57.355Z,49.80
2023-03-16T17:13:40.866Z,64.60
2023-03-16T17:16:16.705Z,62.00
2023-03-16T17:18:45.943Z,56.30
2023-03-16T17:21:19.938Z,65.30
2023-03-16T17:23:49.194Z,79.60
2023-03-16T17:26:21.043Z,85.10
2023-03-16T17:29:17.690Z,69.70
2023-03-16T17:31:46.275Z,67.30
2023-03-16T17:34:18.455Z,60.30
2023-03-16T17:36:47.149Z,59.60
2023-03-16T17:39:19.213Z,56.80
2023-03-16T17:42:01.800Z,57.20
2023-03-16T17:44:36.300Z,63.10
2023-03-16T17:47:12.175Z,63.10
2023-03-16T17:49:40.476Z,70.30
2023-03-16T17:52:19.573Z,63.00
2023-03-16T17:54:49.831Z,66.30
2023-03-16T17:57:22.309Z,66.60
2023-03-16T17:59:50.952Z,67.40
2023-03-16T18:03:04.484Z,81.10
2023-03-16T18:05:48.744Z,73.70
2023-03-16T18:08:35.526Z,87.20
2023-03-16T18:11:08.629Z,83.40
2023-03-16T18:14:01.209Z,87.90
2023-03-16T18:23:48.178Z,105.30
2023-03-16T18:26:31.574Z,112.20
2023-03-16T18:29:07.865Z,128.80
2023-03-16T18:31:42.829Z,124.80
2023-03-16T18:34:21.694Z,123.30
2023-03-16T18:36:51.626Z,116.90
2023-03-16T18:39:27.488Z,144.80
2023-03-16T18:42:21.073Z,112.60
2023-03-16T18:44:59.225Z,97.80
2023-03-16T18:47:33.053Z,95.80
2023-03-16T18:50:02.451Z,94.80
2023-03-16T18:52:34.560Z,90.30
2023-03-16T18:55:28.260Z,86.10
2023-03-16T18:58:24.196Z,84.10
2023-03-16T19:01:00.053Z,82.90
2023-03-16T19:03:46.332Z,82.10
2023-03-16T19:15:53.383Z,71.40
2023-03-16T19:18:37.764Z,66.00
2023-03-16T19:22:20.533Z,61.50
2023-03-16T19:28:58.889Z,75.30
2023-03-16T19:31:41.572Z,81.10
2023-03-16T19:34:35.488Z,76.70
2023-03-16T19:37:50.329Z,69.30
2023-03-16T19:40:39.032Z,75.00
2023-03-16T19:47:15.447Z,66.30
2023-03-16T19:56:46.931Z,57.30
2023-03-16T19:59:22.911Z,58.40
2023-03-16T20:03:25.520Z,60.20
2023-03-16T20:05:53.212Z,70.60
2023-03-16T20:08:32.542Z,68.90
2023-03-16T20:15:20.140Z,67.70
2023-03-16T20:18:01.081Z,72.40
2023-03-16T20:20:56.368Z,72.10
2023-03-16T20:23:48.785Z,69.70
2023-03-16T20:29:51.043Z,73.30
2023-03-16T20:32:33.406Z,72.30
2023-03-16T20:38:47.014Z,72.50
2023-03-16T20:45:27.266Z,88.40
2023-03-16T20:48:23.259Z,86.40
2023-03-16T20:50:55.130Z,85.60
2023-03-16T20:53:26.148Z,79.70
2023-03-16T20:55:57.152Z,69.90
2023-03-16T20:58:34.889Z,76.60
2023-03-16T21:01:39.399Z,71.30
2023-03-16T21:04:42.384Z,63.40
2023-03-16T21:07:16.081Z,64.00
2023-03-16T21:09:55.680Z,65.00
2023-03-16T21:12:49.859Z,63.00
2023-03-16T21:15:23.433Z,61.00
2023-03-16T21:18:09.968Z,56.60
2023-03-16T21:20:50.579Z,57.60
2023-03-16T21:23:22.985Z,55.70
2023-03-16T21:26:14.176Z,53.30
2023-03-16T21:28:59.758Z,56.80
2023-03-16T21:31:34.270Z,56.30
2023-03-16T21:34:01.863Z,56.00
2023-03-16T21:36:31.294Z,60.80
2023-03-16T21:39:03.878Z,58.30
2023-03-16T21:41:35.498Z,59.90
2023-03-16T21:44:23.500Z,60.50
2023-03-16T21:46:51.673Z,62.80
2023-03-16T21:49:22.091Z,65.20
2023-03-16T21:51:54.719Z,69.10
2023-03-16T21:54:26.357Z,66.80
2023-03-16T21:57:03.756Z,67.60
2023-03-16T21:59:58.039Z,59.20
2023-03-16T22:02:35.454Z,58.10
2023-03-16T22:05:29.922Z,56.40
2023-03-16T22:08:30.766Z,50.80
2023-03-16T22:11:04.334Z,46.20
2023-03-16T22:13:36.357Z,46.70
2023-03-16T22:16:36.597Z,46.10
2023-03-16T22:19:23.259Z,44.40
2023-03-16T22:21:59.191Z,46.60
2023-03-16T22:24:50.027Z,47.30
2023-03-16T22:27:25.933Z,50.10
2023-03-16T22:29:55.765Z,48.60
2023-03-16T22:32:31.153Z,45.80
2023-03-16T22:35:05.150Z,38.50
2023-03-16T22:37:53.651Z,40.30
2023-03-16T22:40:40.646Z,41.40
2023-03-16T22:43:17.361Z,45.20
2023-03-16T22:46:07.308Z,45.90
2023-03-16T22:48:42.101Z,43.00
2023-03-16T22:51:45.187Z,42.20
2023-03-16T22:54:40.041Z,41.30
2023-03-16T22:57:16.210Z,48.00
2023-03-16T22:59:52.735Z,46.40
2023-03-16T23:02:38.372Z,49.90
2023-03-16T23:05:39.376Z,51.50
2023-03-16T23:08:35.181Z,51.90
2023-03-16T23:11:23.270Z,82.80
2023-03-16T23:13:56.846Z,81.40
2023-03-16T23:16:38.611Z,74.40
2023-03-16T23:19:33.534Z,64.60
2023-03-16T23:22:40.509Z,55.90
2023-03-16T23:25:07.832Z,45.20
2023-03-16T23:30:46.603Z,43.10
2023-03-16T23:33:21.515Z,40.60
2023-03-16T23:35:53.132Z,42.00
2023-03-16T23:38:26.500Z,44.50
2023-03-16T23:41:00.594Z,41.00
2023-03-16T23:43:33.641Z,38.30
2023-03-16T23:46:32.486Z,37.80
2023-03-16T23:49:12.457Z,36.30
2023-03-16T23:51:44.867Z,36.10
2023-03-16T23:54:27.836Z,33.30
2023-03-16T23:57:00.697Z,32.10
